Time;durP1;ratioP1;P1;durP2;ratioP2;P2;SDS_P1;SDS_P2;PMS_P1;PMS_P2;Temp;Humidity;BMP_temperature;BMP_pressure;BME280_temperature;BME280_humidity;BME280_pressure;Samples;Min_cycle;Max_cycle;Signal;HPM_P1;HPM_P2
2023/10/31 00:02:13;;;;;;;4.65;1.02;;;32.70;27.20;;;;;;4957131;28;20023;-68
2023/10/31 00:04:40;;;;;;;16.38;1.50;;;33.00;26.60;;;;;;4957279;29;20026;-67
2023/10/31 00:07:07;;;;;;;4.10;0.60;;;33.00;27.10;;;;;;4957303;29;20019;-67
2023/10/31 00:09:35;;;;;;;4.88;0.60;;;33.10;27.00;;;;;;4957082;29;20027;-67
2023/10/31 00:12:02;;;;;;;4.70;0.93;;;33.40;27.00;;;;;;4956938;29;20027;-68
2023/10/31 00:14:29;;;;;;;7.65;0.82;;;33.60;27.00;;;;;;4955526;29;20372;-67
2023/10/31 00:16:57;;;;;;;3.60;0.88;;;33.40;26.40;;;;;;4956992;28;20027;-68
2023/10/31 00:19:24;;;;;;;5.30;0.88;;;33.50;26.40;;;;;;4975818;28;20035;-67
2023/10/31 00:21:52;;;;;;;6.75;0.90;;;33.40;26.90;;;;;;4976328;28;20369;-66
2023/10/31 00:24:19;;;;;;;3.90;0.60;;;32.70;26.20;;;;;;4976061;28;20458;-67
2023/10/31 00:26:47;;;;;;;3.53;0.63;;;32.00;26.80;;;;;;4976365;28;20023;-66
2023/10/31 00:29:14;;;;;;;7.88;0.73;;;32.40;26.80;;;;;;4975955;28;20027;-66
2023/10/31 00:31:42;;;;;;;3.33;1.13;;;32.70;26.90;;;;;;4975881;28;20058;-68
2023/10/31 00:34:10;;;;;;;5.63;0.60;;;33.10;26.80;;;;;;4972417;28;20069;-68
2023/10/31 00:36:38;;;;;;;2.53;0.60;;;33.40;26.10;;;;;;4956839;29;20023;-68
2023/10/31 00:39:05;;;;;;;6.28;0.75;;;33.50;26.00;;;;;;4956666;29;20459;-67
2023/10/31 00:41:33;;;;;;;4.80;0.65;;;33.80;26.50;;;;;;4956405;29;20042;-68
2023/10/31 00:44:00;;;;;;;3.00;0.50;;;33.80;25.50;;;;;;4956498;29;20098;-68
2023/10/31 00:46:27;;;;;;;3.63;0.75;;;33.50;24.10;;;;;;4955891;29;20055;-69
2023/10/31 00:48:55;;;;;;;3.40;0.47;;;32.90;23.30;;;;;;4956501;29;20019;-68
2023/10/31 00:51:22;;;;;;;6.10;0.60;;;32.60;24.30;;;;;;4960974;28;20058;-66
2023/10/31 00:53:49;;;;;;;6.57;0.68;;;32.70;22.90;;;;;;4974916;28;20057;-66
2023/10/31 00:56:16;;;;;;;1.83;0.50;;;32.70;23.90;;;;;;4975230;28;20027;-67
2023/10/31 00:58:44;;;;;;;2.63;0.40;;;32.90;23.50;;;;;;4975377;28;20015;-67
2023/10/31 01:01:11;;;;;;;5.50;0.65;;;33.40;24.60;;;;;;4973717;28;20039;-67
2023/10/31 01:03:39;;;;;;;1.50;0.30;;;33.50;23.80;;;;;;4973974;28;20371;-67
2023/10/31 01:06:07;;;;;;;3.65;0.43;;;33.20;21.40;;;;;;4975124;28;20376;-67
2023/10/31 01:08:34;;;;;;;2.65;0.40;;;33.30;21.60;;;;;;4968239;28;20022;-67
2023/10/31 01:11:02;;;;;;;2.05;0.30;;;33.10;21.70;;;;;;4955896;29;20488;-67
2023/10/31 01:13:30;;;;;;;1.10;0.15;;;33.50;22.50;;;;;;4955726;28;20434;-67
2023/10/31 01:15:57;;;;;;;0.77;0.28;;;33.50;21.20;;;;;;4955745;29;20031;-67
2023/10/31 01:18:24;;;;;;;5.20;0.35;;;33.50;21.80;;;;;;4955697;28;20102;-66
2023/10/31 01:20:52;;;;;;;4.60;0.22;;;34.10;23.00;;;;;;4955573;28;20130;-67
2023/10/31 01:23:19;;;;;;;4.10;0.32;;;34.30;22.80;;;;;;4955609;29;20030;-67
2023/10/31 01:25:46;;;;;;;1.00;0.13;;;34.00;22.40;;;;;;4954659;28;20406;-67
2023/10/31 01:28:14;;;;;;;2.00;0.20;;;34.20;22.10;;;;;;4955211;29;20086;-67
2023/10/31 01:30:41;;;;;;;4.47;0.30;;;34.00;22.10;;;;;;4955635;29;20055;-67
2023/10/31 01:33:08;;;;;;;1.88;0.30;;;34.30;22.20;;;;;;4974499;28;20795;-67
2023/10/31 01:35:35;;;;;;;0.43;0.17;;;34.20;21.40;;;;;;4974764;28;20045;-67
2023/10/31 01:38:03;;;;;;;0.57;0.20;;;34.20;21.70;;;;;;4974783;28;20029;-67
2023/10/31 01:40:30;;;;;;;3.88;0.10;;;34.60;21.40;;;;;;4974374;28;20353;-66
2023/10/31 01:42:57;;;;;;;2.72;0.60;;;34.40;20.40;;;;;;4964583;28;20027;-67
2023/10/31 01:45:25;;;;;;;2.17;0.30;;;34.10;20.80;;;;;;4955397;29;20086;-67
2023/10/31 01:47:52;;;;;;;4.72;0.40;;;34.40;21.20;;;;;;4955253;28;20453;-67
2023/10/31 01:50:20;;;;;;;5.13;0.75;;;34.10;21.40;;;;;;4955416;29;20078;-67
2023/10/31 01:52:48;;;;;;;0.20;0.10;;;33.80;20.60;;;;;;4955054;29;20019;-66
2023/10/31 01:55:16;;;;;;;1.67;0.20;;;33.70;20.90;;;;;;4954883;29;20050;-67
2023/10/31 01:57:47;;;;;;;2.80;0.22;;;33.80;21.60;;;;;;4955219;29;20456;-67
2023/10/31 02:00:16;;;;;;;3.72;0.20;;;34.00;21.80;;;;;;4955468;28;20042;-67
2023/10/31 02:02:43;;;;;;;2.42;0.47;;;34.20;21.50;;;;;;4954888;29;20027;-67
2023/10/31 02:05:11;;;;;;;1.08;0.30;;;34.00;21.60;;;;;;4953894;28;20023;-68
2023/10/31 02:07:38;;;;;;;0.60;0.20;;;34.20;21.70;;;;;;4954785;29;20110;-68
2023/10/31 02:10:06;;;;;;;1.13;0.30;;;34.40;22.50;;;;;;4954726;28;20031;-68
2023/10/31 02:12:38;;;;;;;2.85;0.30;;;34.70;22.40;;;;;;4954823;29;20020;-68
2023/10/31 02:15:08;;;;;;;1.10;0.20;;;34.80;21.70;;;;;;4954829;29;20074;-67
2023/10/31 02:17:35;;;;;;;2.35;0.22;;;35.10;21.60;;;;;;4969188;28;20029;-67
2023/10/31 02:20:03;;;;;;;1.90;0.20;;;34.90;21.90;;;;;;4973874;28;20071;-67
2023/10/31 02:22:31;;;;;;;0.47;0.20;;;35.10;21.60;;;;;;4972421;28;20490;-67
2023/10/31 02:24:58;;;;;;;0.80;0.30;;;35.10;21.90;;;;;;4974502;28;20022;-67
2023/10/31 02:27:25;;;;;;;1.45;0.20;;;34.70;22.30;;;;;;4973981;28;20015;-67
2023/10/31 02:29:52;;;;;;;2.25;0.20;;;34.80;22.50;;;;;;4973855;28;20035;-67
2023/10/31 02:32:20;;;;;;;4.80;0.52;;;34.90;22.10;;;;;;4973699;28;20026;-68
2023/10/31 02:34:47;;;;;;;4.80;0.20;;;34.90;22.70;;;;;;4957218;28;20043;-68
2023/10/31 02:37:14;;;;;;;2.92;0.40;;;35.20;22.50;;;;;;4954690;28;20369;-67
2023/10/31 02:39:42;;;;;;;3.38;0.25;;;35.20;22.00;;;;;;4954744;29;20133;-68
2023/10/31 02:42:09;;;;;;;1.75;0.40;;;35.30;22.00;;;;;;4952984;29;20457;-68
2023/10/31 02:44:37;;;;;;;1.42;0.30;;;35.60;21.80;;;;;;4954450;29;20019;-68
2023/10/31 02:47:04;;;;;;;1.25;0.40;;;35.30;21.10;;;;;;4954402;28;20035;-68
2023/10/31 02:49:32;;;;;;;0.55;0.13;;;35.20;21.80;;;;;;4954154;29;20231;-68
2023/10/31 02:51:59;;;;;;;0.65;0.22;;;35.30;21.80;;;;;;4954880;28;20074;-68
2023/10/31 02:54:26;;;;;;;0.65;0.20;;;35.20;21.40;;;;;;4954350;29;20066;-69
2023/10/31 02:56:54;;;;;;;2.17;0.28;;;35.40;22.00;;;;;;4954465;29;20432;-68
2023/10/31 02:59:21;;;;;;;0.85;0.30;;;35.40;22.30;;;;;;4953987;29;20024;-68
2023/10/31 03:01:48;;;;;;;3.25;0.22;;;35.20;20.80;;;;;;4952603;28;20642;-69
2023/10/31 03:04:16;;;;;;;0.40;0.20;;;35.00;20.50;;;;;;4954130;29;20027;-68
2023/10/31 03:06:43;;;;;;;2.63;0.30;;;35.10;21.40;;;;;;4954233;28;20106;-68
2023/10/31 03:09:10;;;;;;;0.30;0.10;;;34.90;21.40;;;;;;4973210;28;20125;-68
2023/10/31 03:11:38;;;;;;;1.02;0.30;;;34.80;21.80;;;;;;4973299;28;20081;-68
2023/10/31 03:14:05;;;;;;;3.67;0.40;;;34.90;22.10;;;;;;4973108;28;20023;-68
2023/10/31 03:16:32;;;;;;;1.15;0.40;;;34.80;20.70;;;;;;4974526;28;20023;-67
2023/10/31 03:19:00;;;;;;;1.42;0.30;;;34.60;21.20;;;;;;4977472;28;20023;-67
2023/10/31 03:21:27;;;;;;;1.50;0.40;;;34.80;21.40;;;;;;4977172;28;20041;-67
2023/10/31 03:23:58;;;;;;;0.82;0.30;;;34.90;21.70;;;;;;4976221;28;20066;-67
2023/10/31 03:26:26;;;;;;;7.75;0.43;;;34.80;21.00;;;;;;4977107;28;20089;-69
2023/10/31 03:28:57;;;;;;;1.40;0.30;;;34.80;21.30;;;;;;4976973;28;20134;-67
2023/10/31 03:31:24;;;;;;;3.33;0.47;;;35.10;21.20;;;;;;4975694;28;20372;-68
2023/10/31 03:33:53;;;;;;;2.63;0.28;;;34.80;20.50;;;;;;4976931;28;20058;-66
2023/10/31 03:36:20;;;;;;;1.17;0.35;;;34.70;21.20;;;;;;4977003;28;20019;-67
2023/10/31 03:38:47;;;;;;;1.48;0.30;;;34.40;21.10;;;;;;4976928;28;20015;-67
2023/10/31 03:41:14;;;;;;;1.58;0.20;;;34.10;20.10;;;;;;4972717;28;20071;-67
2023/10/31 03:43:42;;;;;;;1.60;0.47;;;33.60;20.20;;;;;;4957312;29;20485;-68
2023/10/31 03:46:09;;;;;;;1.63;0.20;;;33.60;20.00;;;;;;4957868;29;20054;-68
2023/10/31 03:48:36;;;;;;;1.05;0.32;;;33.60;20.00;;;;;;4957132;29;20035;-67
2023/10/31 03:51:04;;;;;;;1.67;0.22;;;33.40;20.30;;;;;;4957410;29;20027;-68
2023/10/31 03:53:31;;;;;;;2.47;0.40;;;33.60;20.70;;;;;;4957297;29;20115;-68
2023/10/31 03:56:00;;;;;;;5.63;0.50;;;33.70;20.80;;;;;;4957773;29;20106;-68
2023/10/31 03:58:27;;;;;;;7.28;0.43;;;33.90;21.70;;;;;;4963172;28;20114;-68
2023/10/31 04:00:54;;;;;;;2.72;0.50;;;33.70;22.10;;;;;;4976332;28;20039;-67
2023/10/31 04:03:22;;;;;;;7.40;1.25;;;33.70;21.80;;;;;;4968965;28;20431;-67
2023/10/31 04:05:49;;;;;;;1.52;0.35;;;33.60;21.70;;;;;;4957433;29;20401;-68
2023/10/31 04:08:16;;;;;;;0.32;0.20;;;33.50;21.60;;;;;;4957077;29;20019;-68
2023/10/31 04:10:44;;;;;;;1.52;0.30;;;33.50;21.80;;;;;;4956822;28;20030;-68
2023/10/31 04:13:11;;;;;;;2.95;0.45;;;33.50;21.90;;;;;;4957068;29;20468;-68
2023/10/31 04:15:38;;;;;;;3.28;0.60;;;33.70;22.30;;;;;;4963938;28;20448;-68
2023/10/31 04:18:06;;;;;;;4.13;0.40;;;33.70;21.90;;;;;;4976434;28;20368;-68
2023/10/31 04:20:33;;;;;;;3.80;0.52;;;33.50;22.00;;;;;;4975943;28;20027;-68
2023/10/31 04:23:00;;;;;;;2.88;0.50;;;33.30;21.80;;;;;;4975931;28;20019;-67
2023/10/31 04:25:29;;;;;;;3.13;0.57;;;33.30;22.00;;;;;;4976541;28;20022;-68
2023/10/31 04:27:56;;;;;;;2.97;0.57;;;33.30;21.00;;;;;;4975151;28;20053;-68
2023/10/31 04:30:23;;;;;;;2.88;0.22;;;33.30;21.60;;;;;;4975965;28;20030;-68
2023/10/31 04:32:51;;;;;;;2.25;0.30;;;33.20;21.70;;;;;;4966744;28;20379;-68
2023/10/31 04:35:18;;;;;;;1.48;0.40;;;33.10;21.40;;;;;;4956497;29;20023;-69
2023/10/31 04:37:45;;;;;;;1.05;0.40;;;33.30;22.00;;;;;;4956371;29;20019;-68
2023/10/31 04:40:13;;;;;;;2.05;0.35;;;33.30;21.80;;;;;;4956288;29;20376;-69
2023/10/31 04:42:41;;;;;;;1.02;0.50;;;33.20;22.20;;;;;;4956650;29;20368;-69
2023/10/31 04:45:09;;;;;;;1.75;0.17;;;33.10;21.30;;;;;;4956811;29;20015;-68
2023/10/31 04:47:36;;;;;;;5.38;1.02;;;33.00;22.00;;;;;;4956427;28;20023;-67
2023/10/31 04:50:03;;;;;;;8.45;0.95;;;33.00;22.50;;;;;;4956690;28;20507;-67
2023/10/31 04:52:31;;;;;;;8.02;1.73;;;33.10;23.80;;;;;;4955953;29;20023;-67
2023/10/31 04:54:58;;;;;;;7.60;2.25;;;32.90;27.70;;;;;;4956223;28;20028;-67
2023/10/31 04:57:25;;;;;;;10.02;2.00;;;32.60;28.40;;;;;;4956047;29;20027;-70
2023/10/31 04:59:54;;;;;;;5.70;1.52;;;32.40;27.50;;;;;;4954563;29;20388;-67
2023/10/31 05:02:24;;;;;;;3.67;1.40;;;32.40;26.60;;;;;;4956352;29;20023;-67
2023/10/31 05:04:52;;;;;;;5.72;1.23;;;32.30;26.90;;;;;;4955644;29;20373;-69
2023/10/31 05:07:20;;;;;;;7.38;1.85;;;32.00;26.90;;;;;;4968550;28;20113;-69
2023/10/31 05:09:47;;;;;;;9.07;1.85;;;31.70;27.20;;;;;;4974831;28;20023;-69
2023/10/31 05:12:14;;;;;;;5.20;1.58;;;31.50;27.40;;;;;;4975028;28;20018;-68
2023/10/31 05:14:42;;;;;;;12.88;1.90;;;31.60;28.20;;;;;;4974932;28;20029;-69
2023/10/31 05:17:09;;;;;;;18.35;3.13;;;31.70;29.60;;;;;;4974897;28;20065;-68
2023/10/31 05:19:36;;;;;;;20.00;2.55;;;31.00;37.80;;;;;;4974687;28;20118;-68
2023/10/31 05:22:04;;;;;;;16.02;2.88;;;30.70;40.00;;;;;;4974925;28;20027;-67
2023/10/31 05:24:32;;;;;;;19.73;3.22;;;30.30;41.30;;;;;;4973866;28;20105;-67
2023/10/31 05:26:59;;;;;;;16.25;3.15;;;29.50;42.20;;;;;;4974740;28;20030;-67
2023/10/31 05:29:26;;;;;;;15.85;2.70;;;29.10;43.00;;;;;;4974495;28;20065;-68
2023/10/31 05:31:54;;;;;;;14.20;2.80;;;28.90;43.50;;;;;;4972835;28;20371;-68
2023/10/31 05:34:21;;;;;;;15.20;2.67;;;28.60;43.50;;;;;;4974410;28;20162;-67
2023/10/31 05:36:49;;;;;;;19.95;3.22;;;28.00;43.90;;;;;;4974881;28;20460;-67
2023/10/31 05:39:16;;;;;;;16.58;3.10;;;27.90;45.30;;;;;;4974568;28;20014;-67
2023/10/31 05:41:44;;;;;;;15.45;3.15;;;28.00;46.00;;;;;;4958337;28;20358;-67
2023/10/31 05:44:11;;;;;;;11.73;2.75;;;27.60;46.50;;;;;;4954997;29;20115;-68
2023/10/31 05:46:41;;;;;;;13.48;2.60;;;27.30;47.00;;;;;;4954905;28;20023;-67
2023/10/31 05:49:09;;;;;;;11.30;2.63;;;27.30;46.80;;;;;;4953929;29;20023;-67
2023/10/31 05:51:36;;;;;;;15.07;2.75;;;27.10;47.40;;;;;;4954931;29;20023;-66
2023/10/31 05:54:04;;;;;;;11.30;2.60;;;26.90;48.00;;;;;;4954934;29;20155;-66
2023/10/31 05:56:31;;;;;;;17.10;2.78;;;26.70;48.10;;;;;;4954962;29;20528;-66
2023/10/31 05:58:59;;;;;;;16.98;2.47;;;26.30;48.80;;;;;;4955202;28;20027;-67
2023/10/31 06:01:26;;;;;;;14.70;3.00;;;26.30;48.80;;;;;;4954656;29;20031;-66
2023/10/31 06:03:53;;;;;;;15.38;2.92;;;26.30;48.40;;;;;;4955024;29;20443;-66
2023/10/31 06:06:21;;;;;;;11.10;2.30;;;26.30;47.30;;;;;;4954818;29;20480;-67
2023/10/31 06:08:48;;;;;;;19.83;3.03;;;26.30;47.40;;;;;;4954762;29;20055;-66
2023/10/31 06:11:15;;;;;;;10.50;2.72;;;26.30;48.20;;;;;;4954738;29;20029;-66
2023/10/31 06:13:44;;;;;;;12.20;2.63;;;25.90;49.30;;;;;;4954527;28;20086;-66
2023/10/31 06:16:12;;;;;;;19.60;2.65;;;26.00;49.20;;;;;;4973831;28;20420;-67
2023/10/31 06:18:40;;;;;;;10.32;2.08;;;25.90;49.40;;;;;;4974012;28;20022;-66
2023/10/31 06:21:08;;;;;;;12.65;2.20;;;26.10;49.60;;;;;;4973780;28;20102;-67
2023/10/31 06:23:39;;;;;;;14.15;2.78;;;26.10;48.70;;;;;;4972376;28;20027;-67
2023/10/31 06:26:06;;;;;;;17.27;3.03;;;26.20;48.50;;;;;;4973565;28;20054;-67
2023/10/31 06:28:36;;;;;;;19.23;2.83;;;26.00;48.70;;;;;;4973890;28;20026;-67
2023/10/31 06:31:06;;;;;;;19.52;2.67;;;25.70;49.30;;;;;;4971310;28;20114;-67
2023/10/31 06:33:34;;;;;;;13.93;3.10;;;25.40;50.10;;;;;;4954521;28;20055;-67
2023/10/31 06:36:03;;;;;;;10.43;2.22;;;25.20;50.50;;;;;;4954362;28;20019;-66
2023/10/31 06:38:30;;;;;;;11.10;2.20;;;25.10;50.70;;;;;;4954043;29;20452;-66
2023/10/31 06:40:57;;;;;;;15.27;3.08;;;24.90;51.30;;;;;;4954301;29;20042;-66
2023/10/31 06:43:25;;;;;;;9.18;2.13;;;24.90;51.20;;;;;;4954314;29;20027;-67
2023/10/31 06:45:52;;;;;;;14.07;1.70;;;24.70;51.20;;;;;;4954286;29;20022;-66
2023/10/31 06:48:19;;;;;;;9.43;2.13;;;24.60;51.70;;;;;;4954421;28;20364;-66
2023/10/31 06:50:47;;;;;;;13.57;2.10;;;24.20;52.30;;;;;;4935366;29;20082;-66
2023/10/31 06:53:14;;;;;;;13.05;2.53;;;23.90;53.00;;;;;;4954235;28;20106;-67
2023/10/31 06:55:41;;;;;;;16.15;2.60;;;23.80;53.40;;;;;;4954262;29;20135;-66
2023/10/31 06:58:08;;;;;;;12.73;2.53;;;23.80;53.50;;;;;;4953976;29;20059;-66
2023/10/31 07:00:37;;;;;;;17.75;2.40;;;23.70;53.80;;;;;;4953833;29;20482;-65
2023/10/31 07:03:09;;;;;;;10.95;2.20;;;23.50;53.90;;;;;;4953846;29;20024;-67
2023/10/31 07:05:40;;;;;;;13.50;2.72;;;23.40;53.70;;;;;;4960145;28;20046;-65
2023/10/31 07:08:07;;;;;;;11.60;2.58;;;23.40;53.90;;;;;;4973303;28;20023;-65
2023/10/31 07:10:40;;;;;;;11.90;1.98;;;23.10;54.70;;;;;;4971485;28;20022;-66
2023/10/31 07:13:07;;;;;;;19.42;3.13;;;22.90;55.90;;;;;;4953995;29;20050;-67
2023/10/31 07:15:38;;;;;;;15.52;2.83;;;22.90;56.00;;;;;;4953860;29;20023;-66
2023/10/31 07:18:09;;;;;;;14.27;1.92;;;22.80;55.90;;;;;;4953719;29;20019;-65
2023/10/31 07:20:37;;;;;;;13.48;2.28;;;22.80;56.20;;;;;;4953788;29;20106;-66
2023/10/31 07:23:04;;;;;;;14.55;2.25;;;22.70;56.40;;;;;;4954139;28;20024;-66
2023/10/31 07:25:34;;;;;;;16.88;2.30;;;22.60;57.00;;;;;;4953737;28;20030;-66
2023/10/31 07:28:01;;;;;;;18.42;2.60;;;22.50;56.70;;;;;;4953862;29;20453;-66
2023/10/31 07:30:29;;;;;;;18.80;2.75;;;22.60;56.80;;;;;;4953610;29;20042;-66
2023/10/31 07:32:57;;;;;;;10.20;2.22;;;22.30;57.80;;;;;;4953422;29;20048;-66
2023/10/31 07:35:24;;;;;;;10.63;1.80;;;22.00;58.80;;;;;;4953761;29;20023;-66
2023/10/31 07:37:51;;;;;;;8.43;2.08;;;21.80;59.00;;;;;;4953776;29;20042;-65
2023/10/31 07:40:19;;;;;;;13.40;2.25;;;21.60;59.20;;;;;;4954015;28;20042;-65
2023/10/31 07:42:46;;;;;;;14.77;2.75;;;21.30;60.30;;;;;;4953420;29;20057;-64
2023/10/31 07:45:13;;;;;;;11.38;2.45;;;21.20;60.90;;;;;;4953335;29;20030;-66
2023/10/31 07:47:41;;;;;;;10.75;1.88;;;21.20;61.20;;;;;;4953741;29;20369;-66
2023/10/31 07:50:08;;;;;;;14.88;2.03;;;21.10;60.80;;;;;;4953642;29;20035;-66
2023/10/31 07:52:36;;;;;;;12.13;2.03;;;21.20;60.80;;;;;;4953860;29;20027;-66
2023/10/31 07:55:03;;;;;;;16.13;2.53;;;21.30;60.80;;;;;;4953359;29;20078;-66
2023/10/31 07:57:30;;;;;;;14.13;2.03;;;21.20;61.10;;;;;;4967416;28;20114;-66
2023/10/31 07:59:58;;;;;;;15.13;1.80;;;21.00;61.60;;;;;;4972452;28;20464;-66
2023/10/31 08:02:25;;;;;;;13.18;1.88;;;20.90;62.00;;;;;;4974022;28;20023;-66
2023/10/31 08:04:52;;;;;;;12.63;3.03;;;20.90;62.20;;;;;;4974978;28;20117;-66
2023/10/31 08:07:20;;;;;;;11.10;1.98;;;21.00;61.90;;;;;;4976241;28;20019;-66
2023/10/31 08:09:50;;;;;;;14.63;1.80;;;20.90;61.90;;;;;;4957011;28;20019;-66
2023/10/31 08:12:17;;;;;;;11.50;2.13;;;21.00;62.10;;;;;;4971898;28;20015;-66
2023/10/31 08:14:44;;;;;;;17.17;2.58;;;20.90;61.70;;;;;;4960046;28;20105;-66
2023/10/31 08:17:14;;;;;;;17.42;2.10;;;20.70;62.20;;;;;;4957234;29;20469;-66
2023/10/31 08:19:42;;;;;;;14.90;1.83;;;20.60;62.10;;;;;;4956714;29;20050;-67
2023/10/31 08:22:12;;;;;;;14.60;2.47;;;20.50;62.40;;;;;;4956717;29;20019;-65
2023/10/31 08:24:39;;;;;;;10.52;1.90;;;20.30;62.80;;;;;;4955456;29;20034;-66
2023/10/31 08:27:07;;;;;;;16.55;1.98;;;20.20;62.90;;;;;;4956220;29;20079;-65
2023/10/31 08:29:34;;;;;;;13.00;2.03;;;20.10;63.30;;;;;;4956529;29;20055;-66
2023/10/31 08:32:02;;;;;;;12.45;2.03;;;20.00;63.70;;;;;;4956898;28;20031;-66
2023/10/31 08:34:29;;;;;;;15.98;2.70;;;20.00;63.90;;;;;;4956312;29;20049;-66
2023/10/31 08:37:00;;;;;;;13.27;2.38;;;20.00;64.20;;;;;;4956336;28;20020;-66
2023/10/31 08:39:27;;;;;;;17.27;2.25;;;19.90;64.30;;;;;;4956085;29;20027;-66
2023/10/31 08:42:07;;;;;;;9.00;2.00;;;19.90;64.40;;;;;;4956098;28;20035;-66
2023/10/31 08:44:37;;;;;;;12.85;2.38;;;19.90;64.10;;;;;;4956159;29;20419;-65
2023/10/31 08:47:06;;;;;;;14.10;2.15;;;20.00;63.70;;;;;;4956592;28;20022;-66
2023/10/31 08:49:33;;;;;;;11.85;1.70;;;19.90;63.50;;;;;;4956174;29;20028;-67
2023/10/31 08:52:02;;;;;;;14.95;2.83;;;19.80;63.80;;;;;;4955962;29;20019;-65
2023/10/31 08:54:29;;;;;;;9.90;1.95;;;19.80;63.70;;;;;;4937095;29;20039;-66
2023/10/31 08:56:56;;;;;;;11.65;2.00;;;19.80;63.70;;;;;;4937049;29;20058;-66
2023/10/31 08:59:24;;;;;;;12.05;2.38;;;19.80;63.90;;;;;;4936819;29;20028;-66
2023/10/31 09:01:51;;;;;;;9.57;1.95;;;19.70;64.50;;;;;;4936817;29;20035;-66
2023/10/31 09:04:19;;;;;;;13.57;2.38;;;19.70;64.10;;;;;;4935996;29;20484;-66
2023/10/31 09:06:46;;;;;;;16.30;1.90;;;19.80;63.90;;;;;;4936877;29;20019;-66
2023/10/31 09:09:13;;;;;;;9.35;1.85;;;19.80;63.70;;;;;;4936856;29;20024;-66
2023/10/31 09:11:41;;;;;;;12.25;2.20;;;19.90;63.60;;;;;;4957715;28;20025;-66
2023/10/31 09:14:08;;;;;;;12.38;1.95;;;19.90;63.80;;;;;;4974723;28;20361;-66
2023/10/31 09:16:35;;;;;;;12.38;2.65;;;19.90;63.60;;;;;;4975159;28;20065;-66
2023/10/31 09:19:02;;;;;;;13.93;1.98;;;20.00;63.10;;;;;;4974915;28;20414;-66
2023/10/31 09:21:30;;;;;;;15.65;1.85;;;20.00;62.90;;;;;;4969049;28;20039;-66
2023/10/31 09:24:09;;;;;;;13.18;2.20;;;20.00;63.00;;;;;;4955940;29;20078;-66
2023/10/31 09:29:22;;;;;;;15.07;2.05;;;19.80;63.20;;;;;;4955488;29;20032;-66
2023/10/31 09:31:49;;;;;;;12.38;2.38;;;19.60;63.90;;;;;;4955790;29;20453;-66
2023/10/31 09:34:18;;;;;;;9.30;1.83;;;19.70;63.80;;;;;;4955616;29;20051;-67
2023/10/31 09:36:45;;;;;;;14.20;2.55;;;19.70;64.00;;;;;;4955547;29;20057;-66
2023/10/31 09:39:12;;;;;;;13.63;3.10;;;19.60;64.20;;;;;;4955978;28;20019;-66
2023/10/31 09:41:40;;;;;;;13.05;2.60;;;19.70;64.20;;;;;;4955279;28;20129;-66
2023/10/31 09:44:07;;;;;;;11.25;2.05;;;19.60;64.30;;;;;;4955070;29;20026;-66
2023/10/31 09:46:35;;;;;;;15.85;2.10;;;19.70;63.60;;;;;;4955373;29;20046;-66
2023/10/31 09:49:04;;;;;;;13.48;2.10;;;19.70;64.10;;;;;;4955216;29;20445;-66
2023/10/31 09:51:32;;;;;;;16.05;2.05;;;19.50;64.30;;;;;;4954905;29;20035;-67
2023/10/31 09:54:03;;;;;;;11.88;1.95;;;19.40;64.80;;;;;;4955176;29;20023;-67
2023/10/31 09:56:34;;;;;;;10.82;1.80;;;19.30;65.10;;;;;;4969024;28;20110;-67
2023/10/31 09:59:05;;;;;;;13.80;2.40;;;19.40;65.00;;;;;;4974600;28;20015;-67
2023/10/31 10:01:33;;;;;;;10.93;2.10;;;19.30;65.20;;;;;;4974444;28;20049;-67
2023/10/31 10:04:00;;;;;;;13.05;2.15;;;19.30;65.40;;;;;;4955360;28;20460;-66
2023/10/31 10:06:28;;;;;;;13.93;1.83;;;19.40;65.10;;;;;;4954932;29;20027;-66
2023/10/31 10:08:59;;;;;;;11.13;2.30;;;19.20;65.60;;;;;;4954782;29;20118;-67
2023/10/31 10:11:27;;;;;;;15.00;2.75;;;19.10;65.90;;;;;;4963452;28;20023;-67
2023/10/31 10:13:57;;;;;;;10.00;2.30;;;19.10;66.00;;;;;;4956841;28;20096;-67
2023/10/31 10:16:34;;;;;;;10.48;2.10;;;19.00;66.60;;;;;;4954740;29;20506;-67
2023/10/31 10:19:22;;;;;;;20.57;2.13;;;18.90;66.80;;;;;;4954714;29;20062;-66
2023/10/31 10:21:51;;;;;;;15.85;1.65;;;19.00;66.80;;;;;;4954745;29;20699;-66
2023/10/31 10:24:20;;;;;;;11.02;2.28;;;19.10;66.50;;;;;;4953544;28;20046;-67
2023/10/31 10:26:47;;;;;;;11.40;1.80;;;19.00;66.80;;;;;;4953768;28;20027;-67
2023/10/31 10:29:15;;;;;;;12.07;2.17;;;19.00;67.10;;;;;;4955075;28;20033;-66
2023/10/31 10:31:43;;;;;;;17.10;2.15;;;19.10;66.70;;;;;;4954339;29;20027;-67
2023/10/31 10:34:12;;;;;;;9.90;2.10;;;18.90;67.10;;;;;;4954571;29;20275;-66
2023/10/31 10:36:40;;;;;;;11.60;2.20;;;18.90;67.30;;;;;;4954612;29;20110;-66
2023/10/31 10:39:09;;;;;;;12.20;1.65;;;18.80;67.80;;;;;;4954542;29;20027;-66
2023/10/31 10:41:38;;;;;;;10.52;1.52;;;18.80;67.80;;;;;;4954623;28;20035;-67
2023/10/31 10:44:11;;;;;;;9.40;1.50;;;18.90;67.30;;;;;;4954368;29;20023;-67
2023/10/31 10:46:40;;;;;;;10.25;1.88;;;18.80;67.80;;;;;;4944014;28;20033;-66
2023/10/31 10:49:08;;;;;;;15.27;2.22;;;18.80;67.90;;;;;;4973660;28;20468;-66
2023/10/31 10:51:58;;;;;;;9.20;1.55;;;18.70;68.30;;;;;;4973606;28;20029;-66
2023/10/31 10:54:45;;;;;;;13.80;1.92;;;18.80;68.30;;;;;;4972086;28;20376;-66
2023/10/31 10:58:05;;;;;;;10.95;1.63;;;18.80;68.30;;;;;;4973870;28;20550;-66
2023/10/31 11:00:32;;;;;;;13.38;2.05;;;18.80;68.20;;;;;;4870789;29;20033;-66
2023/10/31 11:03:01;;;;;;;10.95;2.58;;;18.80;68.50;;;;;;4860100;29;20029;-66
2023/10/31 11:05:29;;;;;;;6.70;1.80;;;18.90;68.50;;;;;;4925858;28;20472;-66
2023/10/31 11:07:58;;;;;;;11.73;1.88;;;19.00;68.30;;;;;;4973348;28;20490;-66
2023/10/31 11:10:28;;;;;;;10.60;2.42;;;19.20;67.80;;;;;;4973290;28;20033;-66
2023/10/31 11:12:56;;;;;;;12.77;1.92;;;19.30;67.60;;;;;;4973365;28;20027;-66
2023/10/31 11:15:24;;;;;;;11.50;2.22;;;19.30;67.50;;;;;;4973185;28;20018;-66
2023/10/31 11:17:53;;;;;;;8.18;1.80;;;19.20;67.60;;;;;;4973129;28;20105;-66
2023/10/31 11:20:21;;;;;;;16.50;1.77;;;19.20;67.80;;;;;;4967941;28;20466;-66
2023/10/31 11:22:56;;;;;;;9.00;1.73;;;19.40;67.00;;;;;;4952629;29;20030;-66
2023/10/31 11:25:24;;;;;;;15.60;3.30;;;19.40;66.80;;;;;;4953935;29;20031;-66
2023/10/31 11:27:53;;;;;;;12.20;1.88;;;19.40;67.00;;;;;;4953815;29;20031;-66
2023/10/31 11:30:30;;;;;;;10.88;2.22;;;19.40;66.80;;;;;;4953609;29;20027;-67
2023/10/31 11:33:01;;;;;;;13.38;2.10;;;19.30;67.10;;;;;;4952358;29;20121;-66
2023/10/31 11:35:31;;;;;;;12.32;2.05;;;19.30;67.00;;;;;;4953828;29;20031;-66
2023/10/31 11:38:08;;;;;;;15.90;2.53;;;19.20;67.30;;;;;;4956573;28;20034;-66
2023/10/31 11:40:59;;;;;;;14.73;2.80;;;19.20;67.40;;;;;;4957444;29;20038;-66
2023/10/31 11:43:35;;;;;;;13.20;2.20;;;19.00;68.10;;;;;;4947567;29;20043;-66
2023/10/31 11:46:03;;;;;;;11.18;2.17;;;18.90;68.50;;;;;;4957473;29;20418;-66
2023/10/31 11:48:47;;;;;;;14.13;1.92;;;19.10;68.00;;;;;;4957446;28;20030;-66
2023/10/31 11:51:15;;;;;;;15.95;2.22;;;18.90;68.20;;;;;;4957277;29;20023;-66
2023/10/31 11:53:43;;;;;;;15.30;2.35;;;18.70;68.70;;;;;;4957634;28;20038;-66
2023/10/31 11:56:12;;;;;;;16.83;2.40;;;18.60;69.40;;;;;;4938214;29;20024;-66
2023/10/31 11:58:39;;;;;;;15.35;2.08;;;18.50;69.60;;;;;;4943028;29;20023;-66
2023/10/31 12:01:08;;;;;;;8.68;2.35;;;18.50;69.70;;;;;;4957137;29;20038;-66
2023/10/31 12:03:52;;;;;;;13.23;2.03;;;18.50;70.10;;;;;;4957052;29;20426;-66
2023/10/31 12:06:21;;;;;;;12.35;2.50;;;18.40;70.40;;;;;;4940025;29;20530;-66
2023/10/31 12:08:49;;;;;;;12.43;2.60;;;18.40;70.40;;;;;;4957181;28;20504;-65
2023/10/31 12:11:22;;;;;;;18.02;2.13;;;18.40;70.20;;;;;;4959956;28;20097;-65
2023/10/31 12:13:59;;;;;;;15.52;2.30;;;18.30;70.70;;;;;;4956974;29;20026;-66
2023/10/31 12:16:31;;;;;;;18.30;2.70;;;18.30;70.90;;;;;;4957212;29;20503;-66
2023/10/31 12:19:03;;;;;;;10.68;1.90;;;18.30;71.10;;;;;;4955674;29;20261;-66
2023/10/31 12:21:42;;;;;;;14.82;2.55;;;18.50;70.80;;;;;;4956818;29;20035;-66
2023/10/31 12:24:15;;;;;;;10.02;1.80;;;18.50;70.80;;;;;;4956887;29;20019;-66
2023/10/31 12:26:44;;;;;;;13.27;2.58;;;18.40;70.90;;;;;;4956678;29;20030;-66
2023/10/31 12:29:19;;;;;;;14.45;2.33;;;18.30;71.20;;;;;;4957283;28;20026;-66
2023/10/31 12:31:54;;;;;;;10.65;1.80;;;18.10;71.90;;;;;;4956705;29;20030;-67
2023/10/31 12:34:24;;;;;;;16.60;2.17;;;17.90;72.50;;;;;;4956602;28;20122;-66
2023/10/31 12:36:54;;;;;;;20.35;3.58;;;17.90;72.90;;;;;;4955440;28;20031;-66
2023/10/31 12:39:28;;;;;;;18.75;2.47;;;17.90;73.00;;;;;;4956622;29;20027;-66
2023/10/31 12:41:57;;;;;;;12.55;2.88;;;18.00;73.00;;;;;;4956575;29;20043;-65
2023/10/31 12:44:26;;;;;;;19.85;2.63;;;17.90;73.40;;;;;;4956500;29;20030;-66
2023/10/31 12:46:54;;;;;;;13.35;2.60;;;18.00;73.30;;;;;;4956858;28;20078;-66
2023/10/31 12:49:23;;;;;;;17.00;2.55;;;18.00;73.90;;;;;;4955313;28;20130;-66
2023/10/31 12:52:01;;;;;;;18.80;2.55;;;18.10;73.40;;;;;;4956158;29;20019;-66